• Join FlightAware (Why Join?)
  • Login
  • US Flag 
06:17AM EDT


 

Airport Tracker/Info


-or-


 

Live Flight TrackerFlight Track Log ✈ SKW5535 ✈ 24-Aug-2013 ✈ KMSO - KDEN

Flight Track Log - Related Links

Times and Time Zones

All times are in EDT time to prevent confusion due to time zone crossing. See the SKW5535 flight status page for this flight to view local times or setup timezone preferences in your user account.

Time Position Orientation Groundspeed Altitude Reporting Facility
EDT Latitude Longitude Course Direction KTS MPH feet Rate Location/Type
02:56PM 46.9839 -114.2100 311° West 217 250 6,900  Level Salt Lake Center
02:57PM 46.6899 -113.7318 180° South  Level Estimated
02:57PM 47.0308 -114.2869 312° West 233 268 9,500  Level Salt Lake Center
02:58PM 46.6142 -113.6129 126° Southeast  Level Estimated
02:58PM 47.0486 -114.3747 287° West 255 293 11,300  Level Salt Lake Center
02:59PM 46.5383 -113.4943 139° Southeast  Level Estimated
02:59PM 46.9836 -114.3583 170° South 270 311 13,400  Level Salt Lake Center
03:00PM 46.4624 -113.3760 131° Southeast  Level Estimated
03:00PM 46.9194 -114.2664 136° Southeast 301 346 15,100  Level Salt Lake Center
03:01PM 46.8586 -114.1664 132° Southeast 334 384 16,700 1,500 Climbing Salt Lake Center
03:02PM 46.7897 -114.0511 131° Southeast 355 409 18,200 1,260 Climbing Salt Lake Center
03:03PM 46.7236 -113.9408 131° Southeast 362 417 19,400 1,200 Climbing Salt Lake Center
03:04PM 46.6553 -113.8258 131° Southeast 372 428 20,700 1,080 Climbing Salt Lake Center
03:05PM 46.5867 -113.7094 131° Southeast 381 438 21,700 1,020 Climbing Salt Lake Center
03:06PM 46.5150 -113.5919 132° Southeast 388 447 22,800 1,020 Climbing Salt Lake Center
03:07PM 46.4433 -113.4719 131° Southeast 394 453 23,900 1,020 Climbing Salt Lake Center
03:08PM 46.3703 -113.3506 131° Southeast 403 464 25,000 840 Climbing Salt Lake Center
03:09PM 46.2892 -113.2181 132° Southeast 408 470 25,700 720 Climbing Salt Lake Center
03:10PM 46.2056 -113.0808 131° Southeast 408 470 26,600 720 Climbing Salt Lake Center
03:11PM 46.1308 -112.9581 131° Southeast 412 474 27,200 660 Climbing Salt Lake Center
03:12PM 46.0478 -112.8222 131° Southeast 414 476 28,000 660 Climbing Salt Lake Center
03:13PM 45.9756 -112.7053 132° Southeast 413 475 28,600 480 Climbing Salt Lake Center
03:14PM 45.9019 -112.5875 132° Southeast 412 474 29,100 660 Climbing Salt Lake Center
03:15PM 45.8158 -112.4494 132° Southeast 414 476 30,000 720 Climbing Salt Lake Center
03:16PM 45.7436 -112.3342 132° Southeast 409 471 30,700 660 Climbing Salt Lake Center
03:17PM 45.6592 -112.2003 132° Southeast 406 467 31,400 600 Climbing Salt Lake Center
03:18PM 45.5881 -112.0883 132° Southeast 400 460 32,000 720 Climbing Salt Lake Center
03:19PM 45.5044 -111.9569 132° Southeast 400 460 32,900 480 Climbing Salt Lake Center
03:20PM 45.4331 -111.8464 133° Southeast 397 457 33,000  Climbing Salt Lake Center
03:21PM 45.3525 -111.7456 139° Southeast 401 461 33,000  Level Salt Lake Center
03:22PM 45.2472 -111.6375 144° Southeast 414 476 33,000  Level Salt Lake Center
03:23PM 45.1569 -111.5433 144° Southeast 417 480 33,000  Level Salt Lake Center
03:24PM 45.0664 -111.4017 132° Southeast 429 494 33,000  Level Salt Lake Center
03:25PM 45.0261 -111.2392 109° East 451 519 33,000  Level Salt Lake Center
03:26PM 44.9967 -111.0706 104° East 457 526 33,000  Level Salt Lake Center
03:27PM 44.9639 -110.8753 103° East 457 526 33,000  Level Salt Lake Center
03:28PM 44.9381 -110.7081 102° East 455 524 33,000  Level Salt Lake Center
03:29PM 44.9089 -110.5147 102° East 452 520 33,000  Level Salt Lake Center
03:30PM 44.8622 -110.3647 114° Southeast 442 509 33,000  Level Salt Lake Center
03:32PM 44.7697 -110.2358 135° Southeast 424 488 33,000  Level Salt Lake Center
03:33PM 44.6856 -110.1314 139° Southeast 420 483 33,000  Level Salt Lake Center
03:34PM 44.6025 -110.0247 138° Southeast 420 483 33,000  Level Salt Lake Center
03:35PM 44.5067 -109.8989 137° Southeast 422 486 33,000  Level Salt Lake Center
03:36PM 44.4225 -109.7928 138° Southeast 424 488 33,000  Level Salt Lake Center
03:37PM 44.3261 -109.6694 138° Southeast 421 484 33,000  Level Salt Lake Center
03:38PM 44.2433 -109.5647 138° Southeast 419 482 33,000  Level Salt Lake Center
03:39PM 44.1464 -109.4425 138° Southeast 420 483 33,000  Level Salt Lake Center
03:40PM 44.0650 -109.3392 138° Southeast 416 479 33,000  Level Salt Lake Center
03:41PM 43.9692 -109.2192 138° Southeast 415 478 33,000  Level Salt Lake Center
03:42PM 43.8867 -109.1167 138° Southeast 415 478 33,000  Level Salt Lake Center
03:43PM 43.8047 -109.0136 138° Southeast 415 478 33,000  Level Salt Lake Center
03:44PM 43.7031 -108.8883 138° Southeast 419 482 33,000  Level Salt Lake Center
03:45PM 43.6206 -108.7844 138° Southeast 418 481 33,000  Level Salt Lake Center
03:46PM 43.5361 -108.6822 139° Southeast 422 486 33,000  Level Salt Lake Center
03:47PM 43.4383 -108.5625 138° Southeast 421 484 33,000  Level Salt Lake Center
03:48PM 43.3544 -108.4594 138° Southeast 421 484 33,000  Level Salt Lake Center
03:49PM 43.2567 -108.3411 139° Southeast 420 483 33,000  Level Salt Lake Center
03:50PM 43.1725 -108.2397 139° Southeast 421 484 33,000  Level Salt Lake Center
03:51PM 43.0739 -108.1194 138° Southeast 424 488 33,000  Level Salt Lake Center
03:52PM 42.9897 -108.0200 139° Southeast 420 483 33,000  Level Salt Lake Center
03:53PM 42.9042 -107.9164 138° Southeast 425 489 33,000  Level Salt Lake Center
03:55PM 42.7186 -107.6956 139° Southeast 427 491 33,000  Level Salt Lake Center
03:56PM 42.6175 -107.5767 139° Southeast 429 494 33,000  Level Salt Lake Center
03:57PM 42.5319 -107.4744 139° Southeast 429 494 33,000  Level Salt Lake Center
03:58PM 42.4300 -107.3561 139° Southeast 430 495 33,000  Level Salt Lake Center
03:59PM 42.3433 -107.2544 139° Southeast 430 495 33,000  Level Salt Lake Center
04:00PM 42.2544 -107.1522 140° Southeast 435 501 33,000  Level Salt Lake Center
04:01PM 42.1519 -107.0347 140° Southeast 433 498 33,000  Level Salt Lake Center
04:02PM 42.0636 -106.9364 140° Southeast 431 496 33,000  Level Salt Lake Center
04:03PM 41.9597 -106.8206 140° Southeast 433 498 33,000  Level Salt Lake Center
04:04PM 41.8697 -106.7206 140° Southeast 435 501 33,000  Level Salt Lake Center
04:05PM 41.7761 -106.6181 141° Southeast 440 506 33,000  Level Salt Lake Center
04:07PM 41.6556 -106.4864 141° Southeast 437 503 33,000  Level Denver Center
04:08PM 41.5653 -106.3881 141° Southeast 437 503 33,000  Level Denver Center
04:09PM 41.4617 -106.2750 141° Southeast 434 499 33,000  Level Denver Center
04:10PM 41.3725 -106.1783 141° Southeast 433 498 33,000  Level Denver Center
04:11PM 41.2689 -106.0650 141° Southeast 432 497 33,000  Level Denver Center
04:12PM 41.1800 -105.9708 141° Southeast 429 494 33,000  Level Denver Center
04:13PM 41.0758 -105.8569 140° Southeast 434 499 33,000  Level Denver Center
04:14PM 40.9911 -105.7675 141° Southeast 430 495 33,000 -1,500 Level Denver Center
04:15PM 40.9006 -105.6722 141° Southeast 418 481 30,000 -3,540 Descending Denver Center
04:16PM 40.7906 -105.5550 141° Southeast 424 488 25,800 -3,780 Descending Denver Center
04:17PM 40.6989 -105.4572 141° Southeast 424 488 22,200 -3,480 Descending Denver Center
04:18PM 40.6103 -105.3619 141° Southeast 413 475 18,700 -2,580 Descending Denver Center
04:19PM 40.5264 -105.2742 141° Southeast 391 450 17,000 -1,320 Descending Denver Center
04:20PM 40.4517 -105.2003 143° Southeast 329 379 16,000 -1,080 Descending Denver Center
04:21PM 40.4428 -105.0761 95° East 326 375 14,900 -1,260 Descending Denver Center
04:22PM 40.4311 -104.9597 97° East 324 373 13,500 -1,440 Descending Denver Center
04:23PM 40.4178 -104.8461 99° East 317 365 12,000 -1,260 Descending Denver Center
04:24PM 40.3686 -104.7597 127° Southeast 289 333 11,000 -540 Descending Denver Center
04:25PM 40.3050 -104.7183 154° Southeast 257 296 11,000  Level Denver Center
04:26PM 40.2422 -104.6831 157° South 248 285 11,000 -180 Level Denver Center
04:27PM 40.1728 -104.6825 180° South 231 266 10,700 -840 Descending Denver Center
04:28PM 40.1078 -104.6853 182° South 232 267 9,300 -1,320 Descending Denver Center
04:29PM 40.0436 -104.6850 180° South 230 265 8,100 -1,200 Descending Denver Center
04:30PM 39.9772 -104.6864 181° South 222 255 6,900 -1,020 Descending Denver Center
04:31PM 39.9314 -104.6864 180° South 165 190 6,100 -780 Descending Denver Center
04:32PM 39.8856 -104.6872 181° South 155 178 5,400 -720 Descending Denver Center